Time;durP1;ratioP1;P1;durP2;ratioP2;P2;SDS_P1;SDS_P2;PMS_P1;PMS_P2;Temp;Humidity;BMP_temperature;BMP_pressure;BME280_temperature;BME280_humidity;BME280_pressure;Samples;Min_cycle;Max_cycle;Signal;HPM_P1;HPM_P2
2022/06/16 00:00:42;;;;;;;5.33;2.33;;;;;;;15.12;64.36;100808.61;1791000;78;21554;-68
2022/06/16 00:03:09;;;;;;;3.40;2.20;;;;;;;15.08;64.62;100807.58;1790726;77;21339;-68
2022/06/16 00:05:38;;;;;;;4.10;2.43;;;;;;;15.05;64.83;100809.48;1790039;78;21294;-68
2022/06/16 00:08:07;;;;;;;3.70;2.60;;;;;;;15.00;65.03;100808.98;1768646;79;21234;-68
2022/06/16 00:10:35;;;;;;;4.13;2.77;;;;;;;14.97;65.23;100804.16;1762006;80;21337;-67
2022/06/16 00:13:03;;;;;;;5.00;2.67;;;;;;;14.93;65.39;100799.61;1731260;81;21260;-68
2022/06/16 00:15:30;;;;;;;4.40;2.50;;;;;;;14.89;65.59;100799.36;1792838;80;21276;-68
2022/06/16 00:17:58;;;;;;;3.73;2.50;;;;;;;14.86;65.90;100803.16;1792944;79;21213;-69
2022/06/16 00:20:25;;;;;;;3.80;2.57;;;;;;;14.83;66.11;100807.20;1791832;80;21266;-68
2022/06/16 00:22:52;;;;;;;3.77;2.60;;;;;;;14.80;66.34;100805.61;1770490;79;21439;-68
2022/06/16 00:25:19;;;;;;;4.30;2.70;;;;;;;14.75;66.64;100799.73;1788511;78;21785;-68
2022/06/16 00:27:45;;;;;;;4.07;2.80;;;;;;;14.72;66.88;100794.38;1781285;79;21165;-68
2022/06/16 00:30:13;;;;;;;4.43;2.50;;;;;;;14.71;67.04;100796.80;1743953;78;21340;-68
2022/06/16 00:32:41;;;;;;;4.60;3.00;;;;;;;14.69;67.18;100796.27;1789987;78;21773;-69
2022/06/16 00:35:11;;;;;;;5.47;2.67;;;;;;;14.66;67.45;100796.82;1791136;78;21276;-68
2022/06/16 00:37:38;;;;;;;4.17;2.50;;;;;;;14.64;67.66;100790.94;1790686;78;21200;-67
2022/06/16 00:40:06;;;;;;;5.50;2.70;;;;;;;14.64;67.74;100796.31;1759488;78;21408;-67
2022/06/16 00:42:33;;;;;;;4.10;2.67;;;;;;;14.62;68.02;100795.78;1786372;78;21297;-68
2022/06/16 00:45:01;;;;;;;4.20;2.40;;;;;;;14.60;68.33;100796.58;1790529;78;21823;-68
2022/06/16 00:47:30;;;;;;;4.17;2.90;;;;;;;14.58;68.50;100796.08;1776304;78;21219;-67
2022/06/16 00:50:00;;;;;;;4.37;2.50;;;;;;;14.60;68.66;100800.62;1775172;78;21133;-67
2022/06/16 00:52:30;;;;;;;4.97;3.30;;;;;;;14.58;68.90;100800.63;1790823;78;21342;-67
2022/06/16 00:55:13;;;;;;;4.57;2.70;;;;;;;14.58;69.13;100801.97;1792062;78;21281;-68
2022/06/16 00:57:46;;;;;;;4.30;2.80;;;;;;;14.57;69.29;100802.52;1773515;79;21080;-67
2022/06/16 01:00:20;;;;;;;5.33;3.00;;;;;;;14.58;69.40;100801.97;1770276;79;21081;-69
2022/06/16 01:02:46;;;;;;;4.83;3.03;;;;;;;14.57;69.44;100801.72;1758341;80;22662;-67
2022/06/16 01:05:12;;;;;;;5.83;3.00;;;;;;;14.58;69.43;100804.66;1788430;78;21265;-67
2022/06/16 01:07:45;;;;;;;5.97;3.10;;;;;;;14.60;69.42;100804.65;1791037;78;21772;-68
2022/06/16 01:10:13;;;;;;;4.73;2.90;;;;;;;14.61;69.39;100811.66;1792876;79;21188;-67
2022/06/16 01:16:21;;;;;;;4.63;2.90;;;;;;;14.63;69.37;100812.16;1791295;79;21755;-69
2022/06/16 01:19:31;;;;;;;5.17;3.10;;;;;;;14.62;69.42;100809.22;1786770;80;21305;-67
2022/06/16 01:22:03;;;;;;;4.80;3.00;;;;;;;14.60;69.49;100808.69;1792785;78;21240;-67
2022/06/16 01:24:53;;;;;;;4.07;2.87;;;;;;;14.55;69.53;100810.07;1790392;78;21365;-68
2022/06/16 01:27:25;;;;;;;4.30;2.70;;;;;;;14.52;69.56;100811.42;1790544;78;21505;-67
2022/06/16 01:30:04;;;;;;;4.60;2.80;;;;;;;14.48;69.63;100810.89;1790391;78;21452;-67
2022/06/16 01:33:11;;;;;;;4.03;2.57;;;;;;;14.44;69.75;100807.92;1787601;78;21385;-68
2022/06/16 01:36:05;;;;;;;5.13;2.80;;;;;;;14.41;69.83;100805.81;1787820;78;21697;-67
2022/06/16 01:38:53;;;;;;;3.77;2.53;;;;;;;14.41;69.86;100804.98;1772469;79;21622;-68
2022/06/16 01:41:34;;;;;;;5.27;2.70;;;;;;;14.39;69.89;100803.13;1772669;79;21526;-68
2022/06/16 01:44:13;;;;;;;4.20;2.93;;;;;;;14.38;70.00;100805.53;1785043;78;21738;-68
2022/06/16 01:46:42;;;;;;;4.60;2.57;;;;;;;14.37;70.01;100801.25;1776225;78;21797;-67
2022/06/16 01:49:20;;;;;;;3.00;2.50;;;;;;;14.34;69.96;100806.63;1759671;78;21364;-67
2022/06/16 01:51:53;;;;;;;4.30;2.57;;;;;;;14.29;70.05;100802.64;1787000;78;21259;-68
2022/06/16 01:54:28;;;;;;;3.27;2.43;;;;;;;14.25;70.05;100798.36;1791188;78;21343;-68
2022/06/16 01:57:08;;;;;;;4.17;2.57;;;;;;;14.23;70.00;100796.47;1790140;78;21128;-68
2022/06/16 01:59:41;;;;;;;5.27;2.90;;;;;;;14.24;69.80;100794.05;1790251;78;21273;-68
2022/06/16 02:02:13;;;;;;;4.97;2.90;;;;;;;14.29;69.53;100804.78;1789694;78;21648;-67
2022/06/16 02:04:54;;;;;;;6.08;2.80;;;;;;;14.37;69.29;100800.70;1791268;78;21245;-67
2022/06/16 02:07:32;;;;;;;3.47;2.60;;;;;;;14.43;69.08;100794.77;1791154;78;20971;-67
2022/06/16 02:10:09;;;;;;;4.97;2.80;;;;;;;14.49;68.76;100803.08;1780173;78;22199;-68
2022/06/16 02:12:56;;;;;;;6.30;3.00;;;;;;;14.55;68.53;100800.66;1788544;78;21354;-68
2022/06/16 02:15:40;;;;;;;5.80;2.90;;;;;;;14.59;68.36;100804.39;1789211;78;21067;-67
2022/06/16 02:18:11;;;;;;;4.17;2.45;;;;;;;14.63;68.04;100806.78;1786294;78;21325;-67
2022/06/16 02:20:52;;;;;;;3.93;2.70;;;;;;;14.69;67.83;100808.91;1789612;78;21133;-67
2022/06/16 02:23:20;;;;;;;4.87;2.80;;;;;;;14.73;67.58;100812.10;1759216;80;26742;-67
2022/06/16 02:25:49;;;;;;;4.27;2.70;;;;;;;14.77;67.34;100817.20;1792380;78;21070;-68
2022/06/16 02:28:17;;;;;;;3.70;2.47;;;;;;;14.83;67.03;100816.61;1791289;78;21225;-69
2022/06/16 02:31:05;;;;;;;4.03;2.50;;;;;;;14.89;66.70;100821.42;1795035;77;21207;-68
2022/06/16 02:33:46;;;;;;;3.93;2.33;;;;;;;14.94;66.39;100819.52;1791609;78;21254;-68
2022/06/16 02:36:36;;;;;;;5.28;2.60;;;;;;;15.02;66.08;100815.41;1785367;79;21292;-67
2022/06/16 02:39:36;;;;;;;5.77;2.70;;;;;;;15.10;65.94;100822.08;1786474;78;20995;-68
2022/06/16 02:42:23;;;;;;;5.43;2.40;;;;;;;15.17;65.72;100818.55;1789251;78;21289;-68
2022/06/16 02:45:20;;;;;;;4.80;2.60;;;;;;;15.22;65.56;100823.87;1790136;78;22425;-66
2022/06/16 02:48:36;;;;;;;4.53;2.37;;;;;;;15.29;65.51;100826.24;1789997;78;21319;-68
2022/06/16 02:51:23;;;;;;;4.03;2.50;;;;;;;15.36;65.42;100826.72;1790654;78;21232;-68
2022/06/16 02:54:11;;;;;;;4.30;2.80;;;;;;;15.43;65.12;100824.50;1791157;78;21652;-68
2022/06/16 02:57:00;;;;;;;5.47;2.80;;;;;;;15.49;64.72;100828.20;1791545;78;21199;-68
2022/06/16 02:59:35;;;;;;;4.27;2.60;;;;;;;15.59;64.43;100827.31;1791115;78;21159;-67
2022/06/16 03:02:18;;;;;;;5.80;2.63;;;;;;;15.68;63.94;100829.69;1790486;78;21284;-67
2022/06/16 03:04:51;;;;;;;5.27;2.40;;;;;;;15.76;63.64;100827.45;1791840;78;21256;-68
2022/06/16 03:07:19;;;;;;;5.67;2.40;;;;;;;15.86;63.54;100830.88;1788259;78;21288;-67
2022/06/16 03:09:48;;;;;;;3.80;2.20;;;;;;;15.97;63.39;100830.21;1790007;78;21760;-67
2022/06/16 03:12:16;;;;;;;5.40;2.60;;;;;;;16.08;63.18;100829.55;1789921;77;21716;-68
2022/06/16 03:14:43;;;;;;;6.77;3.43;;;;;;;16.21;62.85;100828.85;1790760;78;21342;-68
2022/06/16 03:17:11;;;;;;;6.70;2.90;;;;;;;16.50;62.23;100825.27;1753375;80;21202;-68
2022/06/16 03:19:38;;;;;;;4.77;2.37;;;;;;;16.50;62.23;100825.27;1792828;78;21389;-68
2022/06/16 03:22:05;;;;;;;3.63;2.50;;;;;;;16.65;61.81;100830.47;1790822;78;21380;-68
2022/06/16 03:24:31;;;;;;;4.03;2.33;;;;;;;16.75;60.88;100826.83;1767869;78;21547;-68
2022/06/16 03:26:58;;;;;;;4.50;2.40;;;;;;;16.95;60.41;100825.20;1791182;78;21500;-68
2022/06/16 03:29:26;;;;;;;4.73;2.60;;;;;;;17.02;59.45;100823.48;1779925;80;21517;-68
2022/06/16 03:31:53;;;;;;;5.57;2.57;;;;;;;17.02;59.45;100823.48;1784984;79;21695;-68
2022/06/16 03:34:22;;;;;;;4.13;2.87;;;;;;;17.06;59.25;100829.89;1789341;78;21558;-68
2022/06/16 03:36:51;;;;;;;5.07;2.50;;;;;;;17.10;59.05;100828.20;1792318;78;21689;-68
2022/06/16 03:39:20;;;;;;;3.70;2.33;;;;;;;17.09;58.89;100828.76;1789192;78;21704;-67
2022/06/16 03:41:49;;;;;;;5.80;2.60;;;;;;;17.17;59.05;100834.58;1790471;78;21796;-67
2022/06/16 03:44:16;;;;;;;4.63;2.53;;;;;;;17.24;58.80;100830.95;1788876;78;22816;-68
2022/06/16 03:46:42;;;;;;;5.77;2.80;;;;;;;17.32;58.93;100832.99;1787408;78;21702;-68
2022/06/16 03:49:11;;;;;;;4.17;2.70;;;;;;;17.40;58.93;100839.61;1790776;78;21816;-68
2022/06/16 03:51:39;;;;;;;5.70;2.87;;;;;;;17.47;58.53;100829.22;1790987;78;21744;-68
2022/06/16 03:54:06;;;;;;;5.20;2.53;;;;;;;17.50;58.38;100829.42;1790430;78;21665;-66
2022/06/16 03:56:34;;;;;;;4.47;2.60;;;;;;;17.58;58.21;100827.41;1792070;79;21686;-68
2022/06/16 03:59:03;;;;;;;4.53;2.73;;;;;;;17.67;58.10;100834.81;1784905;80;21694;-68
2022/06/16 04:01:32;;;;;;;4.43;2.70;;;;;;;17.76;58.05;100831.68;1779698;80;21770;-68
2022/06/16 04:04:01;;;;;;;4.10;2.60;;;;;;;17.87;58.14;100833.14;1769860;80;22089;-68
2022/06/16 04:06:34;;;;;;;4.20;2.87;;;;;;;17.99;57.70;100830.73;1755199;80;21665;-67
2022/06/16 04:09:03;;;;;;;5.57;2.70;;;;;;;18.10;57.59;100830.52;1775293;80;21724;-69
2022/06/16 04:11:32;;;;;;;4.33;2.47;;;;;;;18.17;57.30;100833.09;1786885;80;21709;-68
2022/06/16 04:14:07;;;;;;;4.40;2.37;;;;;;;18.27;56.42;100828.03;1788647;79;22173;-68
2022/06/16 04:16:40;;;;;;;4.80;2.43;;;;;;;18.27;56.42;100828.03;1792781;79;21142;-67
2022/06/16 04:19:10;;;;;;;4.60;2.70;;;;;;;18.37;56.55;100835.94;1790435;79;22125;-68
2022/06/16 04:21:41;;;;;;;6.97;2.87;;;;;;;18.47;56.20;100833.02;1791771;79;21881;-67
2022/06/16 04:24:20;;;;;;;4.70;2.45;;;;;;;18.57;55.97;100813.63;1793120;79;21024;-67
2022/06/16 04:26:51;;;;;;;4.77;2.60;;;;;;;18.69;55.74;100833.63;1792795;80;21041;-67
2022/06/16 04:29:18;;;;;;;5.80;3.10;;;;;;;18.81;55.39;100833.67;1792292;79;21022;-68
2022/06/16 04:31:46;;;;;;;3.87;2.57;;;;;;;18.94;54.94;100833.63;1786933;79;21783;-67
2022/06/16 04:34:13;;;;;;;4.03;2.37;;;;;;;19.04;54.40;100831.78;1775691;78;21683;-67
2022/06/16 04:36:41;;;;;;;5.27;2.87;;;;;;;19.17;54.17;100839.05;1783163;79;21583;-67
2022/06/16 04:39:15;;;;;;;4.20;2.50;;;;;;;19.27;53.58;100832.03;1793033;78;21054;-67
2022/06/16 04:41:44;;;;;;;4.20;2.30;;;;;;;19.36;53.13;100837.52;1780863;79;21054;-67
2022/06/16 04:44:12;;;;;;;3.97;2.43;;;;;;;19.43;53.20;100841.38;1782841;80;21673;-67
2022/06/16 04:46:39;;;;;;;4.30;2.37;;;;;;;19.53;53.06;100836.81;1748906;80;21031;-68
2022/06/16 04:49:06;;;;;;;4.37;2.50;;;;;;;19.57;52.92;100837.79;1793588;80;21033;-67
2022/06/16 04:51:45;;;;;;;4.57;2.47;;;;;;;19.60;52.93;100846.09;1795177;79;21556;-67
2022/06/16 04:54:13;;;;;;;6.47;2.27;;;;;;;19.68;52.91;100844.03;1787807;79;21042;-68
2022/06/16 04:56:51;;;;;;;4.47;2.73;;;;;;;19.71;52.65;100841.27;1753914;79;21821;-68
2022/06/16 04:59:19;;;;;;;4.27;2.30;;;;;;;19.75;52.67;100843.59;1782642;80;21066;-69
2022/06/16 05:01:52;;;;;;;4.80;2.40;;;;;;;19.86;52.79;100840.04;1781864;79;21058;-68
2022/06/16 05:04:26;;;;;;;3.83;2.40;;;;;;;20.01;52.66;100842.34;1773095;79;21523;-68
2022/06/16 05:06:55;;;;;;;4.57;2.40;;;;;;;20.13;52.09;100846.59;1792359;78;20923;-68
2022/06/16 05:09:41;;;;;;;4.00;2.27;;;;;;;20.26;51.90;100842.73;1790702;79;21506;-68
2022/06/16 05:12:28;;;;;;;3.43;2.10;;;;;;;20.34;50.98;100846.04;1792298;79;21017;-68
2022/06/16 05:14:56;;;;;;;6.40;2.40;;;;;;;20.40;50.62;100846.14;1783263;79;21507;-68
2022/06/16 05:17:24;;;;;;;4.10;2.10;;;;;;;20.47;50.37;100838.89;1793039;80;21027;-68
2022/06/16 05:20:11;;;;;;;4.73;2.50;;;;;;;20.59;50.08;100844.50;1771187;78;21002;-68
2022/06/16 05:22:54;;;;;;;4.30;2.47;;;;;;;20.64;49.66;100843.02;1789848;80;21474;-68
2022/06/16 05:25:25;;;;;;;4.87;2.08;;;;;;;20.73;49.46;100847.89;1783295;78;21608;-68
2022/06/16 05:28:06;;;;;;;3.17;2.10;;;;;;;20.87;49.01;100843.66;1735636;80;21631;-68
2022/06/16 05:30:48;;;;;;;4.10;2.33;;;;;;;20.92;48.45;100838.06;1788401;78;21188;-67
2022/06/16 05:33:33;;;;;;;5.67;2.23;;;;;;;20.91;48.48;100846.54;1757779;80;21042;-68
2022/06/16 05:36:17;;;;;;;4.03;2.27;;;;;;;20.92;48.79;100845.41;1708639;78;21101;-68
2022/06/16 05:39:02;;;;;;;4.17;2.00;;;;;;;20.97;48.32;100851.48;1786248;79;21112;-69
2022/06/16 05:41:33;;;;;;;3.80;2.10;;;;;;;21.04;48.02;100846.94;1791791;78;21046;-68
2022/06/16 05:44:09;;;;;;;4.10;2.00;;;;;;;21.11;47.51;100839.09;1788440;78;20971;-68
2022/06/16 05:46:50;;;;;;;4.35;2.00;;;;;;;21.16;47.14;100848.45;1791317;80;21021;-68
2022/06/16 05:49:21;;;;;;;3.10;1.90;;;;;;;21.25;47.26;100849.22;1792169;78;21678;-68
2022/06/16 05:51:50;;;;;;;5.90;1.90;;;;;;;21.34;46.78;100849.22;1787164;79;21030;-67
2022/06/16 05:54:18;;;;;;;3.47;1.80;;;;;;;21.42;46.78;100853.06;1788130;78;21037;-68
2022/06/16 05:56:46;;;;;;;4.13;2.07;;;;;;;21.52;46.14;100850.82;1791712;77;21423;-68
2022/06/16 05:59:12;;;;;;;4.30;2.07;;;;;;;21.65;45.88;100852.28;1793279;79;21002;-68
2022/06/16 06:01:41;;;;;;;3.57;1.97;;;;;;;21.74;45.71;100844.34;1788804;78;21773;-68
2022/06/16 06:04:10;;;;;;;5.03;1.80;;;;;;;21.82;45.28;100843.30;1778137;78;21006;-68
2022/06/16 06:06:37;;;;;;;3.23;1.70;;;;;;;21.89;44.71;100841.66;1792277;80;21023;-67
2022/06/16 06:17:22;;;;;;;6.20;2.20;;;;;;;22.15;42.90;100844.30;1792025;78;21046;-69
2022/06/16 06:19:52;;;;;;;3.53;1.53;;;;;;;22.17;42.21;100846.11;1787105;79;21517;-68
2022/06/16 06:22:25;;;;;;;4.53;2.03;;;;;;;22.13;41.47;100840.27;1785805;79;21018;-68
2022/06/16 06:24:58;;;;;;;4.77;1.90;;;;;;;22.08;41.52;100842.62;1787297;79;21074;-68
2022/06/16 06:27:39;;;;;;;3.60;1.97;;;;;;;22.09;41.41;100841.49;1787124;79;21806;-69
2022/06/16 06:30:22;;;;;;;3.60;1.93;;;;;;;22.11;41.20;100837.89;1786982;79;21114;-67
2022/06/16 06:32:49;;;;;;;2.87;1.70;;;;;;;22.16;41.07;100843.16;1787498;79;21545;-68
2022/06/16 06:35:16;;;;;;;3.87;1.67;;;;;;;22.29;40.93;100845.98;1788835;78;21049;-67
2022/06/16 06:37:43;;;;;;;5.83;1.80;;;;;;;22.36;40.72;100840.81;1775667;80;21073;-68
2022/06/16 06:56:51;;;;;;;4.83;1.93;;;;;;;23.38;39.03;100842.27;1908043;74;26067;-67
2022/06/16 06:59:19;;;;;;;4.87;1.70;;;;;;;23.36;38.61;100843.97;1862846;77;20863;-67
2022/06/16 07:01:47;;;;;;;4.83;2.00;;;;;;;23.39;38.97;100842.48;1854996;77;21225;-68
2022/06/16 07:04:15;;;;;;;3.43;2.10;;;;;;;23.38;38.68;100844.98;1846769;77;20939;-68
2022/06/16 07:06:42;;;;;;;4.50;2.00;;;;;;;23.44;38.64;100842.85;1862387;77;20983;-68
2022/06/16 07:09:12;;;;;;;4.40;1.80;;;;;;;23.50;37.41;100844.23;1862883;76;20876;-67
2022/06/16 07:11:40;;;;;;;6.53;1.90;;;;;;;23.48;37.17;100836.38;1862644;77;21529;-67
2022/06/16 07:14:08;;;;;;;3.70;1.90;;;;;;;23.51;37.34;100840.37;1862843;76;21051;-66
2022/06/16 07:16:35;;;;;;;4.20;1.90;;;;;;;23.52;37.33;100841.95;1862536;77;20978;-68
2022/06/16 07:19:03;;;;;;;4.53;1.80;;;;;;;23.44;37.25;100841.48;1850867;76;20832;-67
2022/06/16 07:21:30;;;;;;;6.10;2.90;;;;;;;23.44;37.44;100843.64;1828689;78;21039;-68
2022/06/16 07:23:57;;;;;;;4.50;1.87;;;;;;;23.52;37.00;100831.84;1829032;78;21038;-70
2022/06/16 07:26:23;;;;;;;5.53;1.90;;;;;;;23.62;37.06;100827.88;1828671;78;21769;-67
2022/06/16 07:28:50;;;;;;;4.40;1.83;;;;;;;23.72;37.00;100827.47;1829048;78;21422;-67
2022/06/16 07:31:16;;;;;;;3.73;1.77;;;;;;;23.82;37.17;100831.68;1837946;77;20979;-67
2022/06/16 07:33:43;;;;;;;4.53;2.00;;;;;;;23.94;36.10;100826.23;1862909;77;21023;-66
2022/06/16 07:36:11;;;;;;;3.07;1.60;;;;;;;24.02;36.00;100832.71;1860546;76;21387;-67
2022/06/16 07:38:38;;;;;;;4.70;1.50;;;;;;;24.06;35.48;100826.25;1862732;76;21658;-67
2022/06/16 07:43:53;;;;;;;3.63;1.70;;;;;;;24.14;35.62;100821.80;1862139;77;20915;-66
2022/06/16 07:46:20;;;;;;;4.13;1.60;;;;;;;24.17;34.65;100815.66;1862306;77;20943;-68
2022/06/16 07:48:47;;;;;;;4.17;1.70;;;;;;;24.22;34.71;100823.63;1862848;77;20880;-67
2022/06/16 07:51:14;;;;;;;4.73;1.80;;;;;;;24.30;34.49;100823.27;1862295;77;21560;-68
2022/06/16 07:53:41;;;;;;;6.13;1.63;;;;;;;24.40;33.97;100817.34;1842572;77;21557;-67
2022/06/16 07:56:07;;;;;;;5.73;1.33;;;;;;;24.59;34.34;100820.07;1839625;77;20944;-67
2022/06/16 07:58:34;;;;;;;5.77;1.67;;;;;;;24.77;33.65;100821.36;1862817;76;20960;-68
2022/06/16 08:01:00;;;;;;;4.17;1.60;;;;;;;24.82;32.89;100823.86;1862510;76;21062;-67
2022/06/16 08:03:29;;;;;;;4.03;1.50;;;;;;;24.84;32.59;100818.83;1862614;77;21136;-67
2022/06/16 08:05:57;;;;;;;5.03;1.50;;;;;;;24.88;33.08;100812.12;1862260;76;21030;-68
2022/06/16 08:08:29;;;;;;;3.73;1.30;;;;;;;25.01;32.63;100813.09;1862000;77;20959;-68
2022/06/16 08:10:56;;;;;;;2.65;1.40;;;;;;;25.13;31.69;100811.46;1837953;77;20982;-67
2022/06/16 08:13:26;;;;;;;3.33;1.40;;;;;;;25.15;31.76;100813.28;1828537;77;21077;-67
2022/06/16 08:15:53;;;;;;;2.57;1.30;;;;;;;25.20;32.06;100813.02;1861664;77;21527;-67
2022/06/16 08:18:22;;;;;;;3.43;1.30;;;;;;;25.25;31.62;100820.97;1862377;77;20975;-68
2022/06/16 08:20:51;;;;;;;3.10;1.20;;;;;;;25.29;31.38;100804.09;1861723;77;21418;-67
2022/06/16 08:23:18;;;;;;;2.43;1.40;;;;;;;25.33;31.42;100810.44;1870591;76;21058;-68
2022/06/16 08:57:01;;;;;;;4.10;1.40;;;;;;;26.33;29.76;100787.45;1819918;78;26377;-74
2022/06/16 08:59:50;;;;;;;3.43;1.50;;;;;;;26.46;29.65;100783.43;1825263;78;20947;-73
2022/06/16 09:02:48;;;;;;;4.00;1.60;;;;;;;26.50;28.76;100789.80;1825017;78;21483;-74
2022/06/16 09:05:49;;;;;;;2.47;1.40;;;;;;;26.35;29.81;100790.02;1795350;78;21015;-72
2022/06/16 09:08:57;;;;;;;3.45;1.30;;;;;;;26.50;29.36;100787.64;1792348;78;20963;-73
2022/06/16 09:11:54;;;;;;;5.60;1.80;;;;;;;26.69;28.63;100785.46;1792810;80;21066;-74
2022/06/16 09:17:59;;;;;;;2.97;1.60;;;;;;;27.14;28.47;100779.31;1796133;78;20940;-73
2022/06/16 09:20:41;;;;;;;6.50;1.80;;;;;;;27.20;28.58;100779.23;1825136;78;20967;-75
2022/06/16 09:23:11;;;;;;;;;;;;;;;27.22;27.73;100775.56;1760436;81;21067;-73
2022/06/16 09:25:51;;;;;;;4.20;1.80;;;;;;;27.26;28.20;100776.41;1780393;80;20467;-74
2022/06/16 09:28:31;;;;;;;3.23;1.50;;;;;;;27.46;28.65;100784.00;1780247;80;21510;-74
2022/06/16 09:31:02;;;;;;;;;;;;;;;27.54;27.56;100782.16;1782942;80;21028;-74
2022/06/16 09:33:34;;;;;;;3.63;1.30;;;;;;;27.24;27.69;100772.44;1775983;79;20116;-74
2022/06/16 09:36:09;;;;;;;3.43;1.67;;;;;;;26.81;28.62;100782.00;1787806;80;21477;-73
2022/06/16 09:38:48;;;;;;;3.43;1.27;;;;;;;26.46;29.24;100790.28;1785204;80;21092;-74
2022/06/16 09:44:48;;;;;;;5.10;1.87;;;;;;;26.44;30.39;100791.20;1787421;80;21162;-74
2022/06/16 09:47:21;;;;;;;3.57;1.60;;;;;;;26.68;29.71;100786.04;1788932;80;21024;-74
2022/06/16 09:49:57;;;;;;;2.73;1.30;;;;;;;26.89;29.30;100785.69;1787429;80;21004;-74
2022/06/16 09:52:41;;;;;;;4.50;1.50;;;;;;;26.99;28.96;100787.05;1788332;80;21450;-74
2022/06/16 09:55:31;;;;;;;3.47;1.50;;;;;;;26.99;28.69;100783.73;1788649;80;21005;-73
2022/06/16 09:58:25;;;;;;;4.27;1.70;;;;;;;26.94;28.29;100790.86;1787801;80;21156;-72
2022/06/16 10:00:52;;;;;;;6.07;2.20;;;;;;;26.87;28.29;100798.37;1788176;80;21413;-73
2022/06/16 10:03:28;;;;;;;4.00;1.67;;;;;;;26.83;28.10;100787.13;1781134;80;21004;-73
2022/06/16 10:06:06;;;;;;;4.53;2.07;;;;;;;26.83;28.28;100794.77;1757515;80;21610;-74
2022/06/16 10:08:52;;;;;;;3.27;1.47;;;;;;;26.89;28.14;100787.06;1697817;83;21141;-73
2022/06/16 11:40:04;;;;;;;6.60;1.50;;;;;;;26.52;27.23;100741.48;1827310;78;26152;-72
2022/06/16 11:42:54;;;;;;;2.50;1.40;;;;;;;26.48;27.91;100743.38;1800346;79;20983;-72
2022/06/16 11:45:41;;;;;;;3.13;1.50;;;;;;;26.53;29.02;100743.09;1799057;79;21234;-71
2022/06/16 11:48:39;;;;;;;6.73;1.67;;;;;;;26.57;28.04;100742.58;1789164;80;21010;-73
2022/06/16 11:51:35;;;;;;;3.70;1.43;;;;;;;26.72;28.62;100735.42;1790682;80;20924;-72
2022/06/16 11:54:13;;;;;;;5.57;1.50;;;;;;;27.02;28.61;100738.35;1790413;79;20979;-72
2022/06/16 11:56:55;;;;;;;2.80;1.30;;;;;;;27.23;28.15;100745.60;1793673;78;21051;-72
2022/06/16 11:59:53;;;;;;;2.40;1.30;;;;;;;27.16;28.22;100738.63;1799515;78;21816;-73
2022/06/16 12:03:05;;;;;;;5.00;1.67;;;;;;;27.18;28.29;100739.62;1793884;79;21027;-73
2022/06/16 12:05:55;;;;;;;2.53;1.27;;;;;;;27.56;26.86;100742.81;1792577;79;20952;-73
2022/06/16 12:08:38;;;;;;;3.77;1.35;;;;;;;27.62;26.68;100741.92;1768571;80;21094;-71
2022/06/16 12:11:35;;;;;;;2.98;1.30;;;;;;;27.71;26.28;100726.00;1768648;81;21015;-72
2022/06/16 12:14:38;;;;;;;4.27;1.30;;;;;;;27.84;25.83;100726.03;1768478;81;21925;-72
2022/06/16 12:17:26;;;;;;;4.47;1.20;;;;;;;28.03;25.92;100731.37;1799048;78;21032;-72
2022/06/16 12:20:17;;;;;;;3.53;1.50;;;;;;;28.09;25.28;100722.82;1800068;79;21059;-72
2022/06/16 12:22:49;;;;;;;2.77;1.50;;;;;;;28.02;25.83;100718.02;1812453;78;21070;-72
2022/06/16 12:25:47;;;;;;;3.77;1.30;;;;;;;27.99;26.25;100722.30;1800340;79;21600;-72
2022/06/16 12:28:28;;;;;;;3.27;1.30;;;;;;;27.45;26.42;100715.21;1800142;78;22118;-73
2022/06/16 12:31:14;;;;;;;4.67;1.67;;;;;;;27.59;26.64;100718.16;1762178;78;21026;-72
2022/06/16 12:33:56;;;;;;;3.13;1.40;;;;;;;27.56;25.98;100710.67;1800028;79;20952;-72
2022/06/16 12:36:29;;;;;;;2.23;1.10;;;;;;;27.43;26.52;100711.25;1767899;78;21027;-72
2022/06/16 12:39:12;;;;;;;3.00;1.20;;;;;;;27.30;26.89;100708.69;1797762;79;21024;-73
2022/06/16 12:41:41;;;;;;;3.60;1.30;;;;;;;27.19;26.44;100700.88;1797926;79;21714;-74
2022/06/16 12:44:17;;;;;;;3.53;1.50;;;;;;;27.09;26.84;100706.95;1798590;79;21056;-71
2022/06/16 12:47:06;;;;;;;2.30;1.20;;;;;;;27.05;27.18;100711.58;1799643;79;21028;-73
2022/06/16 12:49:37;;;;;;;2.93;1.27;;;;;;;27.09;27.09;100709.69;1799651;78;21086;-73
2022/06/16 12:52:12;;;;;;;4.20;1.20;;;;;;;27.06;26.61;100705.72;1799578;78;21538;-72
2022/06/16 12:55:01;;;;;;;4.17;1.40;;;;;;;27.02;26.74;100704.09;1799575;79;21089;-72
2022/06/16 12:57:42;;;;;;;2.33;1.00;;;;;;;26.97;27.15;100699.68;1799410;79;21070;-72
2022/06/16 13:00:18;;;;;;;2.57;1.20;;;;;;;27.14;27.27;100695.69;1799840;79;21008;-72
2022/06/16 13:03:06;;;;;;;2.67;1.30;;;;;;;27.47;26.58;100689.56;1798670;79;21078;-72
2022/06/16 13:05:32;;;;;;;2.03;1.03;;;;;;;27.77;26.68;100691.59;1799893;79;20948;-74
2022/06/16 13:07:59;;;;;;;3.33;1.30;;;;;;;27.99;26.75;100684.45;1799074;79;21318;-73
2022/06/16 13:10:27;;;;;;;2.90;1.13;;;;;;;28.37;26.34;100682.57;1816334;78;21110;-73
2022/06/16 13:12:57;;;;;;;3.00;1.00;;;;;;;28.72;25.78;100687.67;1831487;78;21463;-72
2022/06/16 13:15:34;;;;;;;2.07;1.27;;;;;;;28.96;24.86;100678.89;1831910;78;21000;-72
2022/06/16 13:18:17;;;;;;;2.10;1.20;;;;;;;29.12;24.29;100677.29;1831801;77;21476;-72
2022/06/16 13:20:48;;;;;;;2.77;1.30;;;;;;;29.25;24.42;100679.13;1819421;78;21204;-71
2022/06/16 13:23:29;;;;;;;2.53;1.10;;;;;;;29.39;24.11;100679.26;1791541;78;21518;-72
2022/06/16 13:26:24;;;;;;;2.97;1.20;;;;;;;29.51;23.42;100682.86;1782098;80;21070;-73
2022/06/16 13:29:15;;;;;;;2.10;1.00;;;;;;;29.28;24.09;100677.00;1796714;79;20937;-73
2022/06/16 13:31:48;;;;;;;3.27;1.00;;;;;;;29.04;23.65;100681.14;1705678;79;21033;-72
2022/06/16 13:34:44;;;;;;;1.93;1.10;;;;;;;28.72;23.93;100678.84;1794953;78;21172;-73
2022/06/16 13:37:10;;;;;;;2.57;1.10;;;;;;;28.55;23.87;100676.70;1798661;78;20984;-72
2022/06/16 13:40:06;;;;;;;2.53;1.03;;;;;;;28.35;23.74;100671.94;1743155;78;21016;-73
2022/06/16 13:43:02;;;;;;;3.17;0.90;;;;;;;28.23;24.43;100668.06;1774923;78;21071;-72
2022/06/16 13:45:36;;;;;;;3.90;0.93;;;;;;;28.15;24.62;100663.08;1797012;79;21095;-73
2022/06/16 13:48:12;;;;;;;2.40;1.10;;;;;;;28.34;24.92;100664.09;1797297;78;21577;-72
2022/06/16 13:51:00;;;;;;;2.33;0.90;;;;;;;28.70;24.60;100665.29;1738037;81;21070;-72
2022/06/16 13:53:48;;;;;;;3.67;1.10;;;;;;;29.05;23.70;100652.45;1767677;81;21012;-72
2022/06/16 13:56:31;;;;;;;3.17;1.00;;;;;;;29.35;23.28;100657.81;1767445;81;21059;-73
2022/06/16 13:59:20;;;;;;;1.73;0.90;;;;;;;29.73;22.83;100648.04;1767187;81;21086;-73
2022/06/16 14:02:08;;;;;;;2.63;1.07;;;;;;;29.90;23.21;100645.95;1789435;78;21305;-72
2022/06/16 14:04:45;;;;;;;3.00;1.10;;;;;;;29.84;23.73;100650.25;1790723;79;21062;-73
2022/06/16 14:07:14;;;;;;;1.80;1.00;;;;;;;30.09;23.94;100647.61;1798296;79;21055;-72
2022/06/16 14:09:59;;;;;;;2.77;1.20;;;;;;;30.48;23.79;100651.11;1798837;79;21087;-73
2022/06/16 14:13:14;;;;;;;1.97;1.00;;;;;;;30.59;23.06;100657.41;1799578;79;21035;-73
2022/06/16 14:16:01;;;;;;;1.93;1.00;;;;;;;30.23;23.36;100651.81;1799897;79;21534;-74
2022/06/16 14:19:00;;;;;;;2.03;1.00;;;;;;;29.88;23.94;100650.48;1798381;78;20949;-73
2022/06/16 14:21:46;;;;;;;2.17;1.00;;;;;;;29.64;24.50;100649.16;1799788;79;21526;-73
2022/06/16 14:24:50;;;;;;;3.37;1.10;;;;;;;29.96;24.76;100643.63;1743448;82;21086;-73
2022/06/16 14:27:22;;;;;;;2.90;1.10;;;;;;;30.45;24.27;100648.53;1742740;82;20952;-74
2022/06/16 14:29:49;;;;;;;2.57;0.90;;;;;;;30.83;23.79;100640.72;1742582;82;21877;-73
2022/06/16 14:32:23;;;;;;;3.03;1.10;;;;;;;30.93;23.64;100637.77;1742705;82;20967;-73
2022/06/16 14:35:10;;;;;;;3.77;1.10;;;;;;;30.92;23.14;100642.51;1743795;81;20952;-74
2022/06/16 14:37:41;;;;;;;1.98;1.00;;;;;;;31.07;23.18;100639.95;1737649;82;21044;-74
2022/06/16 14:40:19;;;;;;;2.05;1.02;;;;;;;31.25;22.87;100643.28;1738602;82;21116;-74
2022/06/16 14:42:47;;;;;;;1.85;0.93;;;;;;;31.19;22.61;100642.09;1739152;82;21709;-73
2022/06/16 14:45:26;;;;;;;2.52;0.88;;;;;;;30.92;22.46;100638.37;1739250;82;21091;-74